Observation data for Saint Lawrence on 04/23/2019      Previous  Date  Next       Current Mesonet Observations  Soil Data  Daily Summary Page  Observations in Plain Language
KST1 230500Z 12006KT 16/14 A2996 RMK A01 T01620141  RH  089%=      5-min Rain = 0
KST1 230505Z 11006KT 16/14 A2996 RMK A01 T01620142  RH  090%=      5-min Rain = 0
KST1 230510Z 11006KT 16/14 A2996 RMK A01 T01620142  RH  090%=      5-min Rain = 0
KST1 230515Z 11006KT 16/14 A2996 RMK A01 T01630142  RH  089%=      5-min Rain = 0
KST1 230520Z 11006KT 16/14 A2996 RMK A01 T01630142  RH  089%=      5-min Rain = 0
KST1 230525Z 11006KT 16/14 A2996 RMK A01 T01630141  RH  089%=      5-min Rain = 0
KST1 230530Z 10006KT 16/14 A2996 RMK A01 T01600141  RH  090%=      5-min Rain = 0
KST1 230535Z 09006KT 16/14 A2996 RMK A01 T01600141  RH  090%=      5-min Rain = 0
KST1 230540Z 09006KT 16/14 A2996 RMK A01 T01600141  RH  090%=      5-min Rain = 0
KST1 230545Z 08006KT 16/14 A2996 RMK A01 T01610142  RH  090%=      5-min Rain = 0
KST1 230550Z 08007KT 16/14 A2996 RMK A01 T01620141  RH  090%=      5-min Rain = 0
KST1 230555Z 08006KT 16/14 A2996 RMK A01 T01620141  RH  090%=      5-min Rain = 0
KST1 230600Z 08006KT 16/14 A2996 RMK A01 T01610141  RH  090%=      5-min Rain = 0
KST1 230605Z 08005KT 16/14 A2997 RMK A01 T01600141  RH  090%=      5-min Rain = 0
KST1 230610Z 08005KT 16/14 A2997 RMK A01 T01600141  RH  090%=      5-min Rain = 0
KST1 230615Z 07005KT 16/14 A2997 RMK A01 T01560137  RH  090%=      5-min Rain = 0
KST1 230620Z 06007KT 15/14 A2997 RMK A01 T01520137  RH  093%=      5-min Rain = 0
KST1 230625Z 04007KT 15/14 A2997 RMK A01 T01500137  RH  094%=      5-min Rain = 0
KST1 230630Z 03007KT 15/14 A2998 RMK A01 T01490138  RH  095%=      5-min Rain = 0
KST1 230635Z 04007KT 15/14 A2997 RMK A01 T01520142  RH  095%=      5-min Rain = 0
KST1 230640Z 05007KT 16/15 A2998 RMK A01 T01560145  RH  095%=      5-min Rain = 0
KST1 230645Z 06007KT 16/15 A2998 RMK A01 T01600147  RH  094%=      5-min Rain = 0
KST1 230650Z 07007KT 16/15 A2997 RMK A01 T01630148  RH  092%=      5-min Rain = 0
KST1 230655Z 07007KT 17/15 A2997 RMK A01 T01660147  RH  091%=      5-min Rain = 0
KST1 230700Z 08008KT 17/15 A2997 RMK A01 T01670148  RH  090%=      5-min Rain = 0
KST1 230705Z 09009KT 17/15 A2997 RMK A01 T01710148  RH  088%=      5-min Rain = 0
KST1 230710Z 10009KT 17/15 A2996 RMK A01 T01720147  RH  087%=      5-min Rain = 0
KST1 230715Z 10009KT 17/15 A2996 RMK A01 T01730147  RH  087%=      5-min Rain = 0
KST1 230720Z 11010KT 17/15 A2996 RMK A01 T01740148  RH  086%=      5-min Rain = 0
KST1 230725Z 11010KT 18/15 A2996 RMK A01 T01750148  RH  086%=      5-min Rain = 0
KST1 230730Z 12010KT 18/15 A2996 RMK A01 T01760148  RH  085%=      5-min Rain = 0
KST1 230735Z 11009KT 18/15 A2996 RMK A01 T01750147  RH  086%=      5-min Rain = 0
KST1 230740Z 12009KT 18/15 A2996 RMK A01 T01750147  RH  086%=      5-min Rain = 0
KST1 230745Z 11008KT 17/15 A2996 RMK A01 T01740147  RH  086%=      5-min Rain = 0
KST1 230750Z 11008KT 17/15 A2996 RMK A01 T01740148  RH  087%=      5-min Rain = 0
KST1 230755Z 11007KT 17/15 A2996 RMK A01 T01740148  RH  087%=      5-min Rain = 0
KST1 230800Z 10006KT 17/15 A2996 RMK A01 T01740148  RH  087%=      5-min Rain = 0
KST1 230805Z 10006KT 17/15 A2996 RMK A01 T01740148  RH  087%=      5-min Rain = 0
KST1 230810Z 10006KT 17/15 A2996 RMK A01 T01740148  RH  087%=      5-min Rain = 0
KST1 230815Z 11006KT 17/15 A2996 RMK A01 T01740149  RH  087%=      5-min Rain = 0
KST1 230820Z 11005KT 17/15 A2996 RMK A01 T01740149  RH  087%=      5-min Rain = 0
KST1 230825Z 11006KT 17/15 A2996 RMK A01 T01740149  RH  087%=      5-min Rain = 0
KST1 230830Z 12006KT 17/15 A2996 RMK A01 T01740149  RH  087%=      5-min Rain = 0
KST1 230835Z 11006KT 17/15 A2996 RMK A01 T01740149  RH  087%=      5-min Rain = 0
KST1 230840Z 11006KT 17/15 A2996 RMK A01 T01740150  RH  088%=      5-min Rain = 0
KST1 230845Z 11006KT 17/15 A2995 RMK A01 T01740150  RH  087%=      5-min Rain = 0
KST1 230850Z 11007KT 17/15 A2995 RMK A01 T01740150  RH  087%=      5-min Rain = 0
KST1 230855Z 12007KT 17/15 A2995 RMK A01 T01740150  RH  087%=      5-min Rain = 0
KST1 230900Z 12008KT 18/15 A2995 RMK A01 T01750150  RH  088%=      5-min Rain = 0
KST1 230905Z 12008KT 18/15 A2995 RMK A01 T01750151  RH  088%=      5-min Rain = 0
KST1 230910Z 12007KT 18/15 A2995 RMK A01 T01750151  RH  088%=      5-min Rain = 0
KST1 230915Z 11006KT 18/15 A2996 RMK A01 T01750151  RH  088%=      5-min Rain = 0
KST1 230920Z 11006KT 17/15 A2996 RMK A01 T01740152  RH  088%=      5-min Rain = 0
KST1 230925Z 11005KT 17/15 A2996 RMK A01 T01740152  RH  089%=      5-min Rain = 0
KST1 230930Z 11005KT 17/15 A2996 RMK A01 T01730153  RH  090%=      5-min Rain = 0
KST1 230935Z 11006KT 17/15 A2997 RMK A01 T01720154  RH  091%=      5-min Rain = 0
KST1 230940Z 11005KT 17/16 A2997 RMK A01 T01710155  RH  092%=      5-min Rain = 0
KST1 230945Z 10005KT 17/16 A2997 RMK A01 T01700157  RH  094%=      5-min Rain = 0
KST1 230950Z 10005KT 17/16 A2997 RMK A01 T01690158  RH  095%=      5-min Rain = 0
KST1 230955Z 09004KT 17/16 A2997 RMK A01 T01680159  RH  097%=      5-min Rain = 0
KST1 231000Z 09004KT 17/16 A2997 RMK A01 T01670160  RH  098%=      5-min Rain = 0
KST1 231005Z 07004KT 17/16 A2996 RMK A01 T01660160  RH  099%=      5-min Rain = 0
KST1 231010Z 07004KT 17/16 A2997 RMK A01 T01650161  RH  099%=      5-min Rain = 0
KST1 231015Z 07004KT 17/16 A2997 RMK A01 T01650161  RH  100%=      5-min Rain = 0
KST1 231020Z 06004KT 16/16 A2996 RMK A01 T01640161  RH  100%=      5-min Rain = 0
KST1 231025Z 06004KT 16/16 A2997 RMK A01 T01640160  RH  100%=      5-min Rain = 0
KST1 231030Z 06004KT 16/16 A2997 RMK A01 T01640160  RH  100%=      5-min Rain = 0
KST1 231035Z 06004KT 16/16 A2997 RMK A01 T01630160  RH  100%=      5-min Rain = 0
KST1 231040Z 07004KT 16/16 A2997 RMK A01 T01630160  RH  100%=      5-min Rain = 0
KST1 231045Z 07004KT 16/16 A2997 RMK A01 T01640160  RH  100%=      5-min Rain = 0
KST1 231050Z 07004KT 16/16 A2997 RMK A01 T01640160  RH  100%=      5-min Rain = 0
KST1 231055Z 07004KT 16/16 A2997 RMK A01 T01640160  RH  100%=      5-min Rain = 0
KST1 231100Z 07004KT 16/16 A2997 RMK A01 T01640160  RH  100%=      5-min Rain = 0
KST1 231105Z 07005KT 16/16 A2997 RMK A01 T01640160  RH  100%=      5-min Rain = 0
KST1 231110Z 07005KT 16/16 A2997 RMK A01 T01640160  RH  100%=      5-min Rain = 0
KST1 231115Z 06005KT 16/16 A2997 RMK A01 T01630160  RH  100%=      5-min Rain = 0
KST1 231120Z 06005KT 16/16 A2997 RMK A01 T01630159  RH  100%=      5-min Rain = 0
KST1 231125Z 05005KT 16/16 A2997 RMK A01 T01630159  RH  100%=      5-min Rain = 0
KST1 231130Z 06006KT 16/16 A2997 RMK A01 T01620159  RH  100%=      5-min Rain = 0
KST1 231135Z 06006KT 16/16 A2997 RMK A01 T01620159  RH  100%=      5-min Rain = 0
KST1 231140Z 08006KT 16/16 A2997 RMK A01 T01620159  RH  100%=      5-min Rain = 0
KST1 231145Z 08005KT 16/16 A2997 RMK A01 T01620159  RH  100%=      5-min Rain = 0
KST1 231150Z 08006KT 16/16 A2997 RMK A01 T01620159  RH  100%=      5-min Rain = 0
KST1 231155Z 08006KT 16/16 A2997 RMK A01 T01620159  RH  100%=      5-min Rain = 0
KST1 231200Z 08006KT 16/16 A2997 RMK A01 T01620159  RH  100%=      5-min Rain = 0
KST1 231205Z 08007KT 16/16 A2997 RMK A01 T01620159  RH  100%=      5-min Rain = 0
KST1 231210Z 09007KT 16/16 A2997 RMK A01 T01620159  RH  100%=      5-min Rain = 0
KST1 231215Z 09008KT 16/16 A2997 RMK A01 T01620159  RH  100%=      5-min Rain = 0
KST1 231220Z 09008KT 16/16 A2997 RMK A01 T01620159  RH  100%=      5-min Rain = 0
KST1 231225Z 10008KT 16/16 A2998 RMK A01 T01630159  RH  100%=      5-min Rain = 0
KST1 231230Z 10008KT 16/16 A2998 RMK A01 T01630160  RH  100%=      5-min Rain = 0
KST1 231235Z 11007KT 16/16 A2998 RMK A01 T01630160  RH  100%=      5-min Rain = 0
KST1 231240Z 11007KT 16/16 A2998 RMK A01 T01640160  RH  100%=      5-min Rain = 0
KST1 231245Z 10007KT 16/16 A2998 RMK A01 T01640160  RH  100%=      5-min Rain = 0
KST1 231250Z 10007KT 16/16 A2998 RMK A01 T01640161  RH  100%=      5-min Rain = 0
KST1 231255Z 10006KT 17/16 A2999 RMK A01 T01650161  RH  100%=      5-min Rain = 0
KST1 231300Z 10007KT 17/16 A30 RMK A01 T01650161  RH  100%=      5-min Rain = 0
KST1 231305Z 10007KT 17/16 A30 RMK A01 T01650162  RH  100%=      5-min Rain = 0
KST1 231310Z 10007KT 17/16 A30 RMK A01 T01660162  RH  100%=      5-min Rain = 0
KST1 231315Z 10006KT 17/16 A3001 RMK A01 T01660162  RH  100%=      5-min Rain = 0
KST1 231320Z 10005KT 17/16 A3001 RMK A01 T01660163  RH  100%=      5-min Rain = 0
KST1 231325Z 10006KT 17/16 A3001 RMK A01 T01660163  RH  100%=      5-min Rain = 0
KST1 231330Z 10007KT 17/16 A3001 RMK A01 T01670164  RH  100%=      5-min Rain = 0
KST1 231335Z 11006KT 17/16 A3001 RMK A01 T01670164  RH  100%=      5-min Rain = 0
KST1 231340Z 11005KT 17/17 A3001 RMK A01 T01690165  RH  100%=      5-min Rain = 0
KST1 231345Z 10007KT 17/17 A3001 RMK A01 T01690166  RH  100%=      5-min Rain = 0
KST1 231350Z 10007KT 17/17 A3001 RMK A01 T01700167  RH  100%=      5-min Rain = 0
KST1 231355Z 10007KT 17/17 A3001 RMK A01 T01700167  RH  100%=      5-min Rain = 0
KST1 231400Z 10007KT 17/17 A3001 RMK A01 T01710167  RH  100%=      5-min Rain = 0
KST1 231405Z 11008KT 17/17 A3001 RMK A01 T01720168  RH  100%=      5-min Rain = 0
KST1 231410Z 11008KT 17/17 A3001 RMK A01 T01720168  RH  100%=      5-min Rain = 0
KST1 231415Z 11008KT 17/17 A3001 RMK A01 T01730169  RH  100%=      5-min Rain = 0
KST1 231420Z 11008KT 18/17 A3001 RMK A01 T01750171  RH  100%=      5-min Rain = 0
KST1 231425Z 11008KT 18/17 A3001 RMK A01 T01760172  RH  100%=      5-min Rain = 0
KST1 231430Z 11008KT 18/17 A3001 RMK A01 T01780174  RH  100%=      5-min Rain = 0
KST1 231435Z 11009KT 18/18 A3001 RMK A01 T01790175  RH  100%=      5-min Rain = 0
KST1 231440Z 12008KT 18/17 A30 RMK A01 T01790174  RH  099%=      5-min Rain = 0
KST1 231445Z 12009KT 18/17 A30 RMK A01 T01800174  RH  099%=      5-min Rain = 0
KST1 231450Z 12010KT 18/17 A30 RMK A01 T01800173  RH  098%=      5-min Rain = 0
KST1 231455Z 13012KT 18/17 A30 RMK A01 T01800173  RH  098%=      5-min Rain = 0
KST1 231500Z 13013KT 18/17 A30 RMK A01 T01820172  RH  096%=      5-min Rain = 0
KST1 231505Z 13012KT 19/17 A3001 RMK A01 T01880174  RH  094%=      5-min Rain = 0
KST1 231510Z 13010KT 19/17 A3001 RMK A01 T01900172  RH  091%=      5-min Rain = 0
KST1 231515Z 13009KT 19/17 A3002 RMK A01 T01910173  RH  091%=      5-min Rain = 0
KST1 231520Z 13009KT 19/17 A3002 RMK A01 T01900171  RH  091%=      5-min Rain = 0
KST1 231525Z 13008KT 19/17 A3002 RMK A01 T01870169  RH  092%=      5-min Rain = 0
KST1 231530Z 13008KT 19/17 A3002 RMK A01 T01870170  RH  092%=      5-min Rain = 0
KST1 231535Z 14008KT 19/17 A3002 RMK A01 T01900170  RH  091%=      5-min Rain = 0
KST1 231540Z 12008KT 19/17 A3002 RMK A01 T01890169  RH  090%=      5-min Rain = 0
KST1 231545Z 13009KT 19/17 A3002 RMK A01 T01900170  RH  090%=      5-min Rain = 0
KST1 231550Z 13008KT 19/17 A3002 RMK A01 T01910168  RH  088%=      5-min Rain = 0
KST1 231555Z 12006KT 19/17 A3002 RMK A01 T01900165  RH  088%=      5-min Rain = 0
KST1 231600Z 13007KT 19/17 A3002 RMK A01 T01900167  RH  088%=      5-min Rain = 0
KST1 231605Z 10007KT 19/17 A3003 RMK A01 T01890168  RH  090%=      5-min Rain = 0
KST1 231610Z 11007KT 19/17 A3003 RMK A01 T01900169  RH  090%=      5-min Rain = 0
KST1 231615Z 10008KT 19/17 A3003 RMK A01 T01890168  RH  090%=      5-min Rain = 0
KST1 231620Z 10007KT 19/17 A3003 RMK A01 T01910169  RH  089%=      5-min Rain = 0
KST1 231625Z 10007KT 19/17 A3003 RMK A01 T01920169  RH  089%=      5-min Rain = 0
KST1 231630Z 10008KT 19/17 A3003 RMK A01 T01920168  RH  088%=      5-min Rain = 0
KST1 231635Z 10008KT 19/17 A3003 RMK A01 T01930168  RH  088%=      5-min Rain = 0
KST1 231640Z 10009KT 19/17 A3002 RMK A01 T01940169  RH  088%=      5-min Rain = 0
KST1 231645Z 09009KT 20/17 A3002 RMK A01 T01950170  RH  087%=      5-min Rain = 0
KST1 231650Z 10009KT 19/17 A3002 RMK A01 T01940168  RH  087%=      5-min Rain = 0
KST1 231655Z 11010KT 20/17 A3002 RMK A01 T01960167  RH  085%=      5-min Rain = 0
KST1 231700Z 10011KT 20/17 A3002 RMK A01 T02040170  RH  083%=      5-min Rain = 0
KST1 231705Z 10012KT 21/17 A3001 RMK A01 T02060169  RH  081%=      5-min Rain = 0
KST1 231710Z 10011KT 20/17 A3001 RMK A01 T02040166  RH  081%=      5-min Rain = 0
KST1 231715Z 09010KT 20/17 A3002 RMK A01 T02040166  RH  081%=      5-min Rain = 0
KST1 231720Z 10009KT 20/16 A3002 RMK A01 T02020163  RH  080%=      5-min Rain = 0
KST1 231725Z 09009KT 20/17 A3001 RMK A01 T02040165  RH  080%=      5-min Rain = 0
KST1 231730Z 09010KT 21/17 A3001 RMK A01 T02110167  RH  078%=      5-min Rain = 0
KST1 231735Z 10008KT 22/16 A3001 RMK A01 T02160164  RH  074%=      5-min Rain = 0
KST1 231740Z 10009KT 22/17 A3001 RMK A01 T02210165  RH  072%=      5-min Rain = 0
KST1 231745Z 10008KT 21/16 A3001 RMK A01 T02140162  RH  074%=      5-min Rain = 0
KST1 231750Z 11010G15KT 22/16 A3001 RMK A01 T02150162  RH  074%=      5-min Rain = 0
KST1 231755Z 12010KT 22/16 A3001 RMK A01 T02170161  RH  072%=      5-min Rain = 0
KST1 231800Z 12011G16KT 22/16 A3001 RMK A01 T02190161  RH  071%=      5-min Rain = 0
KST1 231805Z 12010KT 22/16 A30 RMK A01 T02160161  RH  072%=      5-min Rain = 0
KST1 231810Z 10009KT 21/16 A30 RMK A01 T02120160  RH  074%=      5-min Rain = 0
KST1 231815Z 11011KT 22/16 A2999 RMK A01 T02190159  RH  070%=      5-min Rain = 0
KST1 231820Z 11012KT 22/16 A2999 RMK A01 T02210162  RH  070%=      5-min Rain = 0
KST1 231825Z 10013KT 22/16 A2999 RMK A01 T02240163  RH  070%=      5-min Rain = 0
KST1 231830Z 11012KT 23/16 A2998 RMK A01 T02280160  RH  067%=      5-min Rain = 0
KST1 231835Z 11011KT 23/16 A2999 RMK A01 T02250155  RH  066%=      5-min Rain = 0
KST1 231840Z 13010KT 23/15 A2999 RMK A01 T02260153  RH  065%=      5-min Rain = 0
KST1 231845Z 14008G13KT 23/15 A2999 RMK A01 T02260152  RH  064%=      5-min Rain = 0
KST1 231850Z 13009G14KT 23/15 A2999 RMK A01 T02260151  RH  064%=      5-min Rain = 0
KST1 231855Z 12008G13KT 22/15 A2998 RMK A01 T02240149  RH  064%=      5-min Rain = 0
KST1 231900Z 11005G10KT 23/15 A2998 RMK A01 T02310149  RH  061%=      5-min Rain = 0
KST1 231905Z 11006KT 23/15 A2997 RMK A01 T02300150  RH  062%=      5-min Rain = 0
KST1 231910Z 13006KT 23/14 A2997 RMK A01 T02300142  RH  059%=      5-min Rain = 0
KST1 231915Z 13006G11KT 23/15 A2997 RMK A01 T02310145  RH  059%=      5-min Rain = 0
KST1 231920Z 15006KT 23/14 A2997 RMK A01 T02320142  RH  058%=      5-min Rain = 0
KST1 231925Z 13006G11KT 23/15 A2997 RMK A01 T02320146  RH  059%=      5-min Rain = 0
KST1 231930Z 13008G14KT 23/15 A2997 RMK A01 T02330147  RH  060%=      5-min Rain = 0
KST1 231935Z 12008G13KT 23/15 A2997 RMK A01 T02330146  RH  059%=      5-min Rain = 0
KST1 231940Z 12007KT 23/14 A2996 RMK A01 T02310140  RH  057%=      5-min Rain = 0
KST1 231945Z 11008KT 23/14 A2996 RMK A01 T02310141  RH  058%=      5-min Rain = 0
KST1 231950Z 13010G16KT 23/14 A2996 RMK A01 T02330139  RH  057%=      5-min Rain = 0
KST1 231955Z 13011G16KT 24/14 A2997 RMK A01 T02370143  RH  057%=      5-min Rain = 0
KST1 232000Z 12012G17KT 24/15 A2996 RMK A01 T02370150  RH  060%=      5-min Rain = 0
KST1 232005Z 12013KT 23/15 A2996 RMK A01 T02330154  RH  063%=      5-min Rain = 0
KST1 232010Z 12014KT 23/15 A2996 RMK A01 T02300152  RH  063%=      5-min Rain = 0
KST1 232015Z 12014KT 23/15 A2995 RMK A01 T02270153  RH  064%=      5-min Rain = 0
KST1 232020Z 11013G18KT 22/15 A2994 RMK A01 T02220154  RH  067%=      5-min Rain = 0
KST1 232025Z 12012KT 22/16 A2995 RMK A01 T02220158  RH  069%=      5-min Rain = 0
KST1 232030Z 11012KT 22/16 A2995 RMK A01 T02190158  RH  070%=      5-min Rain = 0
KST1 232035Z 11012KT 22/16 A2994 RMK A01 T02190157  RH  070%=      5-min Rain = 0
KST1 232040Z 11014KT 22/16 A2993 RMK A01 T02210160  RH  070%=      5-min Rain = 0
KST1 232045Z 13015KT 22/16 A2993 RMK A01 T02210164  RH  072%=      5-min Rain = 0
KST1 232050Z 12015KT 23/17 A2992 RMK A01 T02310168  RH  069%=      5-min Rain = 0
KST1 232055Z 13016KT 24/16 A2993 RMK A01 T02370162  RH  064%=      5-min Rain = 0
KST1 232100Z 14013KT 24/16 A2993 RMK A01 T02400155  RH  060%=      5-min Rain = 0
KST1 232105Z 13014KT 23/15 A2993 RMK A01 T02340153  RH  062%=      5-min Rain = 0
KST1 232110Z 12014G19KT 23/15 A2993 RMK A01 T02310153  RH  063%=      5-min Rain = 0
KST1 232115Z 13011KT 23/15 A2993 RMK A01 T02290153  RH  064%=      5-min Rain = 0
KST1 232120Z 13013KT 23/15 A2993 RMK A01 T02280151  RH  063%=      5-min Rain = 0
KST1 232125Z 14011KT 23/15 A2992 RMK A01 T02280153  RH  064%=      5-min Rain = 0
KST1 232130Z 14012KT 23/15 A2992 RMK A01 T02280154  RH  064%=      5-min Rain = 0
KST1 232135Z 14012KT 23/15 A2992 RMK A01 T02270154  RH  064%=      5-min Rain = 0
KST1 232140Z 13014KT 23/15 A2991 RMK A01 T02270153  RH  064%=      5-min Rain = 0
KST1 232145Z 13016KT 23/15 A2991 RMK A01 T02260152  RH  064%=      5-min Rain = 0
KST1 232150Z 14014KT 23/15 A299 RMK A01 T02250150  RH  064%=      5-min Rain = 0
KST1 232155Z 14012KT 23/15 A2991 RMK A01 T02250152  RH  065%=      5-min Rain = 0
KST1 232200Z 14013KT 22/16 A2991 RMK A01 T02240156  RH  067%=      5-min Rain = 0
KST1 232205Z 13013KT 22/16 A2991 RMK A01 T02220159  RH  069%=      5-min Rain = 0
KST1 232210Z 14013KT 22/16 A2992 RMK A01 T02200160  RH  071%=      5-min Rain = 0
KST1 232215Z 13011KT 22/16 A2992 RMK A01 T02190164  RH  073%=      5-min Rain = 0
KST1 232220Z 12011KT 21/17 A2992 RMK A01 T02140169  RH  077%=      5-min Rain = 0
KST1 232225Z 12009KT 22/17 A2991 RMK A01 T02150168  RH  077%=      5-min Rain = 0
KST1 232230Z 11008KT 22/17 A2991 RMK A01 T02150170  RH  078%=      5-min Rain = 0
KST1 232235Z 11008KT 22/17 A2991 RMK A01 T02150170  RH  077%=      5-min Rain = 0
KST1 232240Z 10008KT 22/17 A2991 RMK A01 T02170169  RH  076%=      5-min Rain = 0
KST1 232245Z 14008G13KT 22/16 A2991 RMK A01 T02200162  RH  071%=      5-min Rain = 0
KST1 232250Z 15011KT 22/16 A2991 RMK A01 T02230155  RH  067%=      5-min Rain = 0
KST1 232255Z 14013KT 22/15 A299 RMK A01 T02240154  RH  066%=      5-min Rain = 0
KST1 232300Z 14014KT 22/15 A299 RMK A01 T02240154  RH  066%=      5-min Rain = 0
KST1 232305Z 14015KT 22/16 A299 RMK A01 T02230157  RH  068%=      5-min Rain = 0
KST1 232310Z 13016KT 22/16 A299 RMK A01 T02200158  RH  069%=      5-min Rain = 0
KST1 232315Z 14015KT 22/16 A2989 RMK A01 T02190157  RH  069%=      5-min Rain = 0
KST1 232320Z 13013KT 22/16 A2989 RMK A01 T02180156  RH  069%=      5-min Rain = 0
KST1 232325Z 13016KT 22/16 A299 RMK A01 T02180159  RH  071%=      5-min Rain = 0
KST1 232330Z 13015KT 21/16 A2991 RMK A01 T02140162  RH  074%=      5-min Rain = 0
KST1 232335Z 14015KT 21/16 A299 RMK A01 T02120161  RH  074%=      5-min Rain = 0
KST1 232340Z 13016KT 21/16 A299 RMK A01 T02110162  RH  075%=      5-min Rain = 0
KST1 232345Z 13015KT 21/16 A299 RMK A01 T02100162  RH  076%=      5-min Rain = 0
KST1 232350Z 13012KT 21/16 A299 RMK A01 T02090163  RH  077%=      5-min Rain = 0
KST1 232355Z 12012KT 21/16 A299 RMK A01 T02090164  RH  077%=      5-min Rain = 0
KST1 240000Z 13014KT 21/16 A299 RMK A01 T02090162  RH  076%=      5-min Rain = 0
KST1 240005Z 13014KT 21/16 A299 RMK A01 T02080163  RH  077%=      5-min Rain = 0
KST1 240010Z 13015KT 21/16 A299 RMK A01 T02060160  RH  076%=      5-min Rain = 0
KST1 240015Z 12012KT 21/16 A299 RMK A01 T02050162  RH  078%=      5-min Rain = 0
KST1 240020Z 11011KT 21/16 A2991 RMK A01 T02050164  RH  079%=      5-min Rain = 0
KST1 240025Z 11011KT 20/17 A299 RMK A01 T02040165  RH  080%=      5-min Rain = 0
KST1 240030Z 11011KT 21/17 A299 RMK A01 T02050165  RH  080%=      5-min Rain = 0
KST1 240035Z 12013KT 21/17 A299 RMK A01 T02050165  RH  079%=      5-min Rain = 0
KST1 240040Z 13014KT 21/17 A2989 RMK A01 T02060165  RH  080%=      5-min Rain = 0
KST1 240045Z 13013KT 21/17 A2989 RMK A01 T02050166  RH  080%=      5-min Rain = 0
KST1 240050Z 13014KT 21/17 A299 RMK A01 T02050167  RH  081%=      5-min Rain = 0
KST1 240055Z 13012KT 20/17 A299 RMK A01 T02040168  RH  082%=      5-min Rain = 0
KST1 240100Z 12010KT 20/17 A299 RMK A01 T02040169  RH  082%=      5-min Rain = 0
KST1 240105Z 12011KT 20/17 A299 RMK A01 T02030170  RH  084%=      5-min Rain = 0
KST1 240110Z 13012KT 20/17 A299 RMK A01 T02030171  RH  084%=      5-min Rain = 0
KST1 240115Z 14014G19KT 20/17 A2991 RMK A01 T02030171  RH  084%=      5-min Rain = 0
KST1 240120Z 14016KT 20/17 A2991 RMK A01 T02020168  RH  082%=      5-min Rain = 0
KST1 240125Z 14014KT 20/17 A2991 RMK A01 T02010167  RH  083%=      5-min Rain = 0
KST1 240130Z 13010KT 20/17 A2992 RMK A01 T02010168  RH  084%=      5-min Rain = 0
KST1 240135Z 13011KT 20/17 A2992 RMK A01 T02000169  RH  084%=      5-min Rain = 0
KST1 240140Z 12010KT 20/17 A2991 RMK A01 T02000170  RH  085%=      5-min Rain = 0
KST1 240145Z 11010KT 20/17 A2991 RMK A01 T01990171  RH  086%=      5-min Rain = 0
KST1 240150Z 07008KT 19/16 A2991 RMK A01 T01920158  RH  082%=      5-min Rain = 0
KST1 240155Z 05010G15KT 18/14 A2991 RMK A01 T01800139  RH  079%=      5-min Rain = 0
KST1 240200Z 04014G19KT 17/14 A2991 RMK A01 T01730136  RH  081%=      5-min Rain = 0
KST1 240205Z 03017KT 17/14 A2992 RMK A01 T01700138  RH  083%=      5-min Rain = 0
KST1 240210Z 03018G25KT 17/14 A2992 RMK A01 T01700139  RH  084%=      5-min Rain = 0
KST1 240215Z 03023KT 17/14 A2991 RMK A01 T01690141  RH  085%=      5-min Rain = 0
KST1 240220Z 04018G24KT 17/14 A2993 RMK A01 T01680143  RH  087%=      5-min Rain = 0
KST1 240225Z 04016KT 17/14 A2994 RMK A01 T01680144  RH  088%=      5-min Rain = 0
KST1 240230Z 04016G22KT 17/14 A2994 RMK A01 T01660143  RH  088%=      5-min Rain = 0
KST1 240235Z 02009G16KT 16/14 A2995 RMK A01 T01590140  RH  090%=      5-min Rain = 0
KST1 240240Z 02010G21KT 16/14 A2996 RMK A01 T01570140  RH  091%=      5-min Rain = 0
KST1 240245Z 02017G22KT 15/14 A2997 RMK A01 T01540139  RH  092%=      5-min Rain = 0
KST1 240250Z 34018G23KT 15/14 A2999 RMK A01 T01530138  RH  092%=      5-min Rain = 0
KST1 240255Z 33021KT 15/14 A2999 RMK A01 T01520141  RH  095%=      5-min Rain = 0
KST1 240300Z 36020G26KT 15/14 A2999 RMK A01 T01530140  RH  093%=      5-min Rain = 0
KST1 240305Z 01019G24KT 15/14 A2999 RMK A01 T01540139  RH  093%=      5-min Rain = 0.01
KST1 240310Z 00019G26KT 15/14 A2998 RMK A01 T01510140  RH  095%=      5-min Rain = 0.01
KST1 240315Z 01017KT 15/14 A2997 RMK A01 T01490141  RH  097%=      5-min Rain = 0
KST1 240320Z 01018G23KT 15/14 A2997 RMK A01 T01480142  RH  098%=      5-min Rain = 0
KST1 240325Z 01019G26KT 15/14 A2996 RMK A01 T01460141  RH  099%=      5-min Rain = 0
KST1 240330Z 02021G26KT 15/14 A2996 RMK A01 T01460141  RH  099%=      5-min Rain = 0
KST1 240335Z 02019G25KT 15/14 A2996 RMK A01 T01460142  RH  100%=      5-min Rain = 0
KST1 240340Z 03019G24KT 15/14 A2996 RMK A01 T01450142  RH  100%=      5-min Rain = 0.01
KST1 240345Z 03020G26KT 14/14 A2995 RMK A01 T01440141  RH  100%=      5-min Rain = 0
KST1 240350Z 03020G26KT 14/14 A2995 RMK A01 T01440141  RH  100%=      5-min Rain = 0
KST1 240355Z 02020G27KT 14/14 A2995 RMK A01 T01430140  RH  100%=      5-min Rain = 0
KST1 240400Z 03021G27KT 14/14 A2994 RMK A01 T01430140  RH  100%=      5-min Rain = 0.01
KST1 240405Z 04019G26KT 14/14 A2993 RMK A01 T01420139  RH  100%=      5-min Rain = 0.01
KST1 240410Z 05020G25KT 14/14 A2993 RMK A01 T01420139  RH  100%=      5-min Rain = 0.02
KST1 240415Z 03022G28KT 14/14 A2991 RMK A01 T01410138  RH  100%=      5-min Rain = 0.01
KST1 240420Z 01018G24KT 14/14 A2994 RMK A01 T01410138  RH  100%=      5-min Rain = 0.02
KST1 240425Z 35016G21KT 14/14 A2996 RMK A01 T01410138  RH  100%=      5-min Rain = 0.03
KST1 240430Z 01015KT 14/14 A2995 RMK A01 T01400137  RH  100%=      5-min Rain = 0.03
KST1 240435Z 05014KT 14/14 A2995 RMK A01 T01400137  RH  100%=      5-min Rain = 0.03
KST1 240440Z 08013G18KT 14/14 A2996 RMK A01 T01400137  RH  100%=      5-min Rain = 0.01
KST1 240445Z 03008KT 14/14 A2998 RMK A01 T01410138  RH  100%=      5-min Rain = 0.01
KST1 240450Z 01006KT 14/14 A2997 RMK A01 T01410138  RH  100%=      5-min Rain = 0.01
KST1 240455Z 04006KT 14/14 A2997 RMK A01 T01400137  RH  100%=      5-min Rain = 0

Page generated in 0.0428 seconds.